sensor_id;sensor_type;location;lat;lon;timestamp;P1;durP1;ratioP1;P2;durP2;ratioP2
3971;SDS011;2000;47.572;14.202;2024-01-10T00:00:43;5.07;;;2.33;;
3971;SDS011;2000;47.572;14.202;2024-01-10T00:03:10;2.73;;;1.83;;
3971;SDS011;2000;47.572;14.202;2024-01-10T00:05:37;2.73;;;2.43;;
3971;SDS011;2000;47.572;14.202;2024-01-10T00:08:04;5.63;;;3.07;;
3971;SDS011;2000;47.572;14.202;2024-01-10T00:10:32;3.90;;;2.50;;
3971;SDS011;2000;47.572;14.202;2024-01-10T00:12:59;3.93;;;2.37;;
3971;SDS011;2000;47.572;14.202;2024-01-10T00:15:26;4.53;;;2.70;;
3971;SDS011;2000;47.572;14.202;2024-01-10T00:17:54;6.40;;;3.63;;
3971;SDS011;2000;47.572;14.202;2024-01-10T00:20:21;3.30;;;2.20;;
3971;SDS011;2000;47.572;14.202;2024-01-10T00:22:48;4.53;;;2.60;;
3971;SDS011;2000;47.572;14.202;2024-01-10T00:25:15;5.67;;;3.83;;
3971;SDS011;2000;47.572;14.202;2024-01-10T00:27:42;7.70;;;2.37;;
3971;SDS011;2000;47.572;14.202;2024-01-10T00:30:09;3.43;;;1.90;;
3971;SDS011;2000;47.572;14.202;2024-01-10T00:32:36;2.33;;;2.13;;
3971;SDS011;2000;47.572;14.202;2024-01-10T00:35:03;3.77;;;1.87;;
3971;SDS011;2000;47.572;14.202;2024-01-10T00:37:31;2.10;;;1.57;;
3971;SDS011;2000;47.572;14.202;2024-01-10T00:39:58;4.23;;;2.17;;
3971;SDS011;2000;47.572;14.202;2024-01-10T00:42:25;3.13;;;2.33;;
3971;SDS011;2000;47.572;14.202;2024-01-10T00:44:52;3.30;;;2.00;;
3971;SDS011;2000;47.572;14.202;2024-01-10T00:47:19;5.23;;;2.93;;
3971;SDS011;2000;47.572;14.202;2024-01-10T00:49:46;3.50;;;2.27;;
3971;SDS011;2000;47.572;14.202;2024-01-10T00:52:13;5.40;;;2.17;;
3971;SDS011;2000;47.572;14.202;2024-01-10T00:54:40;5.57;;;3.13;;
3971;SDS011;2000;47.572;14.202;2024-01-10T00:57:07;4.37;;;2.70;;
3971;SDS011;2000;47.572;14.202;2024-01-10T00:59:34;4.90;;;2.27;;
3971;SDS011;2000;47.572;14.202;2024-01-10T01:02:01;4.10;;;2.53;;
3971;SDS011;2000;47.572;14.202;2024-01-10T01:04:28;6.03;;;3.30;;
3971;SDS011;2000;47.572;14.202;2024-01-10T01:06:55;7.73;;;3.20;;
3971;SDS011;2000;47.572;14.202;2024-01-10T01:09:22;4.30;;;2.30;;
3971;SDS011;2000;47.572;14.202;2024-01-10T01:11:49;5.40;;;2.20;;
3971;SDS011;2000;47.572;14.202;2024-01-10T01:14:16;4.23;;;2.47;;
3971;SDS011;2000;47.572;14.202;2024-01-10T01:16:43;5.30;;;3.10;;
3971;SDS011;2000;47.572;14.202;2024-01-10T01:19:10;5.80;;;2.97;;
3971;SDS011;2000;47.572;14.202;2024-01-10T01:21:37;4.03;;;2.97;;
3971;SDS011;2000;47.572;14.202;2024-01-10T01:24:04;5.33;;;2.97;;
3971;SDS011;2000;47.572;14.202;2024-01-10T01:26:31;2.83;;;1.47;;
3971;SDS011;2000;47.572;14.202;2024-01-10T01:28:58;6.73;;;3.00;;
3971;SDS011;2000;47.572;14.202;2024-01-10T01:31:25;15.20;;;3.30;;
3971;SDS011;2000;47.572;14.202;2024-01-10T01:33:52;4.20;;;2.30;;
3971;SDS011;2000;47.572;14.202;2024-01-10T01:36:19;5.30;;;3.40;;
3971;SDS011;2000;47.572;14.202;2024-01-10T01:38:46;6.50;;;3.33;;
3971;SDS011;2000;47.572;14.202;2024-01-10T01:41:13;4.47;;;2.23;;
3971;SDS011;2000;47.572;14.202;2024-01-10T01:43:42;4.57;;;2.50;;
3971;SDS011;2000;47.572;14.202;2024-01-10T01:46:09;5.80;;;3.60;;
3971;SDS011;2000;47.572;14.202;2024-01-10T01:48:36;4.70;;;2.43;;
3971;SDS011;2000;47.572;14.202;2024-01-10T01:51:07;2.73;;;2.03;;
3971;SDS011;2000;47.572;14.202;2024-01-10T01:53:35;5.90;;;2.03;;
3971;SDS011;2000;47.572;14.202;2024-01-10T01:56:04;4.40;;;3.00;;
3971;SDS011;2000;47.572;14.202;2024-01-10T01:58:33;6.27;;;3.80;;
3971;SDS011;2000;47.572;14.202;2024-01-10T02:01:01;3.87;;;2.70;;
3971;SDS011;2000;47.572;14.202;2024-01-10T02:03:30;5.60;;;3.00;;
3971;SDS011;2000;47.572;14.202;2024-01-10T02:05:59;6.63;;;2.77;;
3971;SDS011;2000;47.572;14.202;2024-01-10T02:08:26;5.50;;;2.63;;
3971;SDS011;2000;47.572;14.202;2024-01-10T02:10:53;4.10;;;2.67;;
3971;SDS011;2000;47.572;14.202;2024-01-10T02:13:20;3.20;;;2.17;;
3971;SDS011;2000;47.572;14.202;2024-01-10T02:15:47;5.27;;;2.70;;
3971;SDS011;2000;47.572;14.202;2024-01-10T02:18:14;2.93;;;2.07;;
3971;SDS011;2000;47.572;14.202;2024-01-10T02:20:43;3.27;;;2.50;;
3971;SDS011;2000;47.572;14.202;2024-01-10T02:23:11;3.03;;;2.27;;
3971;SDS011;2000;47.572;14.202;2024-01-10T02:25:39;6.13;;;3.43;;
3971;SDS011;2000;47.572;14.202;2024-01-10T02:28:07;7.60;;;3.53;;
3971;SDS011;2000;47.572;14.202;2024-01-10T02:30:35;4.97;;;2.90;;
3971;SDS011;2000;47.572;14.202;2024-01-10T02:33:03;5.83;;;2.70;;
3971;SDS011;2000;47.572;14.202;2024-01-10T02:35:30;6.13;;;3.30;;
3971;SDS011;2000;47.572;14.202;2024-01-10T02:37:59;6.10;;;3.20;;
3971;SDS011;2000;47.572;14.202;2024-01-10T02:40:26;2.30;;;2.10;;
3971;SDS011;2000;47.572;14.202;2024-01-10T02:42:53;2.17;;;1.90;;
3971;SDS011;2000;47.572;14.202;2024-01-10T02:45:20;3.63;;;2.13;;
3971;SDS011;2000;47.572;14.202;2024-01-10T02:47:47;5.50;;;2.87;;
3971;SDS011;2000;47.572;14.202;2024-01-10T02:50:14;2.97;;;2.20;;
3971;SDS011;2000;47.572;14.202;2024-01-10T02:52:43;3.80;;;2.23;;
3971;SDS011;2000;47.572;14.202;2024-01-10T02:55:10;4.00;;;2.40;;
3971;SDS011;2000;47.572;14.202;2024-01-10T02:57:37;5.07;;;2.50;;
3971;SDS011;2000;47.572;14.202;2024-01-10T03:00:04;4.40;;;2.57;;
3971;SDS011;2000;47.572;14.202;2024-01-10T03:02:32;4.17;;;2.40;;
3971;SDS011;2000;47.572;14.202;2024-01-10T03:04:59;3.67;;;1.70;;
3971;SDS011;2000;47.572;14.202;2024-01-10T03:07:26;4.20;;;2.97;;
3971;SDS011;2000;47.572;14.202;2024-01-10T03:09:53;3.43;;;2.17;;
3971;SDS011;2000;47.572;14.202;2024-01-10T03:12:20;3.03;;;1.90;;
3971;SDS011;2000;47.572;14.202;2024-01-10T03:14:47;2.80;;;2.13;;
3971;SDS011;2000;47.572;14.202;2024-01-10T03:17:14;4.30;;;2.40;;
3971;SDS011;2000;47.572;14.202;2024-01-10T03:19:41;5.20;;;3.10;;
3971;SDS011;2000;47.572;14.202;2024-01-10T03:22:11;1.63;;;1.50;;
3971;SDS011;2000;47.572;14.202;2024-01-10T03:24:38;3.20;;;2.33;;
3971;SDS011;2000;47.572;14.202;2024-01-10T03:27:05;2.93;;;2.43;;
3971;SDS011;2000;47.572;14.202;2024-01-10T03:29:33;3.07;;;1.80;;
3971;SDS011;2000;47.572;14.202;2024-01-10T03:32:01;2.17;;;1.87;;
3971;SDS011;2000;47.572;14.202;2024-01-10T03:34:28;7.30;;;2.10;;
3971;SDS011;2000;47.572;14.202;2024-01-10T03:36:55;3.70;;;2.30;;
3971;SDS011;2000;47.572;14.202;2024-01-10T03:39:22;4.13;;;2.80;;
3971;SDS011;2000;47.572;14.202;2024-01-10T03:41:49;3.60;;;2.50;;
3971;SDS011;2000;47.572;14.202;2024-01-10T03:44:16;4.83;;;2.50;;
3971;SDS011;2000;47.572;14.202;2024-01-10T03:46:43;5.43;;;2.43;;
3971;SDS011;2000;47.572;14.202;2024-01-10T03:49:11;2.60;;;2.17;;
3971;SDS011;2000;47.572;14.202;2024-01-10T03:51:38;3.20;;;2.10;;
3971;SDS011;2000;47.572;14.202;2024-01-10T03:54:07;2.80;;;1.53;;
3971;SDS011;2000;47.572;14.202;2024-01-10T03:56:34;5.63;;;3.03;;
3971;SDS011;2000;47.572;14.202;2024-01-10T03:59:01;3.87;;;2.30;;
3971;SDS011;2000;47.572;14.202;2024-01-10T04:01:28;2.83;;;1.97;;
3971;SDS011;2000;47.572;14.202;2024-01-10T04:03:55;4.77;;;2.50;;
3971;SDS011;2000;47.572;14.202;2024-01-10T04:06:22;2.53;;;1.97;;
3971;SDS011;2000;47.572;14.202;2024-01-10T04:08:50;1.83;;;1.60;;
3971;SDS011;2000;47.572;14.202;2024-01-10T04:11:17;3.33;;;2.03;;
3971;SDS011;2000;47.572;14.202;2024-01-10T04:13:44;3.33;;;2.70;;
3971;SDS011;2000;47.572;14.202;2024-01-10T04:16:11;3.03;;;2.20;;
3971;SDS011;2000;47.572;14.202;2024-01-10T04:18:39;2.67;;;2.10;;
3971;SDS011;2000;47.572;14.202;2024-01-10T04:21:07;4.43;;;2.30;;
3971;SDS011;2000;47.572;14.202;2024-01-10T04:23:35;3.20;;;1.87;;
3971;SDS011;2000;47.572;14.202;2024-01-10T04:26:02;3.77;;;2.60;;
3971;SDS011;2000;47.572;14.202;2024-01-10T04:28:30;4.93;;;2.33;;
3971;SDS011;2000;47.572;14.202;2024-01-10T04:30:57;3.40;;;2.20;;
3971;SDS011;2000;47.572;14.202;2024-01-10T04:33:24;4.30;;;2.37;;
3971;SDS011;2000;47.572;14.202;2024-01-10T04:35:51;2.70;;;2.03;;
3971;SDS011;2000;47.572;14.202;2024-01-10T04:38:18;2.87;;;1.77;;
3971;SDS011;2000;47.572;14.202;2024-01-10T04:40:45;2.03;;;1.53;;
3971;SDS011;2000;47.572;14.202;2024-01-10T04:43:12;4.00;;;1.63;;
3971;SDS011;2000;47.572;14.202;2024-01-10T04:45:39;2.97;;;2.07;;
3971;SDS011;2000;47.572;14.202;2024-01-10T04:48:07;5.63;;;2.20;;
3971;SDS011;2000;47.572;14.202;2024-01-10T04:50:34;2.73;;;2.00;;
3971;SDS011;2000;47.572;14.202;2024-01-10T04:53:02;2.70;;;1.87;;
3971;SDS011;2000;47.572;14.202;2024-01-10T04:55:29;2.93;;;2.23;;
3971;SDS011;2000;47.572;14.202;2024-01-10T04:57:56;2.30;;;1.73;;
3971;SDS011;2000;47.572;14.202;2024-01-10T05:00:23;4.50;;;2.17;;
3971;SDS011;2000;47.572;14.202;2024-01-10T05:02:50;2.60;;;2.13;;
3971;SDS011;2000;47.572;14.202;2024-01-10T05:05:20;3.47;;;2.03;;
3971;SDS011;2000;47.572;14.202;2024-01-10T05:07:50;3.43;;;1.87;;
3971;SDS011;2000;47.572;14.202;2024-01-10T05:10:18;4.67;;;2.10;;
3971;SDS011;2000;47.572;14.202;2024-01-10T05:12:45;2.87;;;1.83;;
3971;SDS011;2000;47.572;14.202;2024-01-10T05:15:12;6.90;;;2.07;;
3971;SDS011;2000;47.572;14.202;2024-01-10T05:17:39;3.60;;;1.87;;
3971;SDS011;2000;47.572;14.202;2024-01-10T05:20:06;2.23;;;1.70;;
3971;SDS011;2000;47.572;14.202;2024-01-10T05:22:34;1.83;;;1.67;;
3971;SDS011;2000;47.572;14.202;2024-01-10T05:25:01;7.90;;;3.10;;
3971;SDS011;2000;47.572;14.202;2024-01-10T05:27:29;4.40;;;2.77;;
3971;SDS011;2000;47.572;14.202;2024-01-10T05:29:56;3.30;;;1.70;;
3971;SDS011;2000;47.572;14.202;2024-01-10T05:32:23;4.40;;;1.73;;
3971;SDS011;2000;47.572;14.202;2024-01-10T05:34:50;3.60;;;2.30;;
3971;SDS011;2000;47.572;14.202;2024-01-10T05:37:17;3.03;;;2.43;;
3971;SDS011;2000;47.572;14.202;2024-01-10T05:39:44;3.17;;;2.47;;
3971;SDS011;2000;47.572;14.202;2024-01-10T05:42:11;8.63;;;4.70;;
3971;SDS011;2000;47.572;14.202;2024-01-10T05:44:38;6.27;;;3.97;;
3971;SDS011;2000;47.572;14.202;2024-01-10T05:47:06;5.77;;;2.57;;
3971;SDS011;2000;47.572;14.202;2024-01-10T05:49:33;4.93;;;2.53;;
3971;SDS011;2000;47.572;14.202;2024-01-10T05:52:00;14.37;;;5.30;;
3971;SDS011;2000;47.572;14.202;2024-01-10T05:54:28;4.60;;;2.87;;
3971;SDS011;2000;47.572;14.202;2024-01-10T05:56:55;4.40;;;2.10;;
3971;SDS011;2000;47.572;14.202;2024-01-10T05:59:22;3.27;;;2.60;;
3971;SDS011;2000;47.572;14.202;2024-01-10T06:01:52;3.90;;;2.30;;
3971;SDS011;2000;47.572;14.202;2024-01-10T06:04:19;1.83;;;1.60;;
3971;SDS011;2000;47.572;14.202;2024-01-10T06:06:47;2.73;;;2.20;;
3971;SDS011;2000;47.572;14.202;2024-01-10T06:09:14;4.70;;;2.50;;
3971;SDS011;2000;47.572;14.202;2024-01-10T06:11:41;3.87;;;2.40;;
3971;SDS011;2000;47.572;14.202;2024-01-10T06:14:08;3.33;;;2.47;;
3971;SDS011;2000;47.572;14.202;2024-01-10T06:16:35;4.30;;;1.60;;
3971;SDS011;2000;47.572;14.202;2024-01-10T06:19:03;4.40;;;2.07;;
3971;SDS011;2000;47.572;14.202;2024-01-10T06:21:30;3.10;;;2.23;;
3971;SDS011;2000;47.572;14.202;2024-01-10T06:23:57;2.37;;;1.60;;
3971;SDS011;2000;47.572;14.202;2024-01-10T06:26:24;1.93;;;1.83;;
3971;SDS011;2000;47.572;14.202;2024-01-10T06:28:51;1.23;;;1.13;;
3971;SDS011;2000;47.572;14.202;2024-01-10T06:31:19;2.97;;;1.80;;
3971;SDS011;2000;47.572;14.202;2024-01-10T06:33:46;1.73;;;1.63;;
3971;SDS011;2000;47.572;14.202;2024-01-10T06:36:14;2.27;;;1.93;;
3971;SDS011;2000;47.572;14.202;2024-01-10T06:38:41;4.23;;;1.60;;
3971;SDS011;2000;47.572;14.202;2024-01-10T06:41:08;2.00;;;1.57;;
3971;SDS011;2000;47.572;14.202;2024-01-10T06:43:36;2.37;;;2.00;;
3971;SDS011;2000;47.572;14.202;2024-01-10T06:46:03;4.40;;;1.83;;
3971;SDS011;2000;47.572;14.202;2024-01-10T06:48:30;3.60;;;1.90;;
3971;SDS011;2000;47.572;14.202;2024-01-10T06:51:02;12.43;;;4.27;;
3971;SDS011;2000;47.572;14.202;2024-01-10T06:53:29;6.00;;;3.03;;
3971;SDS011;2000;47.572;14.202;2024-01-10T06:55:56;5.23;;;1.97;;
3971;SDS011;2000;47.572;14.202;2024-01-10T06:58:23;4.00;;;2.30;;
3971;SDS011;2000;47.572;14.202;2024-01-10T07:00:50;5.70;;;2.47;;
3971;SDS011;2000;47.572;14.202;2024-01-10T07:03:18;3.33;;;2.03;;
3971;SDS011;2000;47.572;14.202;2024-01-10T07:05:45;3.57;;;3.10;;
3971;SDS011;2000;47.572;14.202;2024-01-10T07:08:13;2.40;;;2.00;;
3971;SDS011;2000;47.572;14.202;2024-01-10T07:10:41;4.00;;;2.17;;
3971;SDS011;2000;47.572;14.202;2024-01-10T07:13:08;3.10;;;2.33;;
3971;SDS011;2000;47.572;14.202;2024-01-10T07:15:36;1.53;;;1.43;;
3971;SDS011;2000;47.572;14.202;2024-01-10T07:18:05;2.60;;;1.90;;
3971;SDS011;2000;47.572;14.202;2024-01-10T07:20:33;1.80;;;1.70;;
3971;SDS011;2000;47.572;14.202;2024-01-10T07:23:00;3.20;;;2.37;;
3971;SDS011;2000;47.572;14.202;2024-01-10T07:25:27;2.83;;;2.43;;
3971;SDS011;2000;47.572;14.202;2024-01-10T07:27:55;3.60;;;2.53;;
3971;SDS011;2000;47.572;14.202;2024-01-10T07:30:22;3.13;;;2.10;;
3971;SDS011;2000;47.572;14.202;2024-01-10T07:32:49;2.03;;;1.40;;
3971;SDS011;2000;47.572;14.202;2024-01-10T07:35:17;2.10;;;1.30;;
3971;SDS011;2000;47.572;14.202;2024-01-10T07:37:44;3.77;;;2.07;;
3971;SDS011;2000;47.572;14.202;2024-01-10T07:40:11;3.73;;;2.00;;
3971;SDS011;2000;47.572;14.202;2024-01-10T07:42:40;3.47;;;2.17;;
3971;SDS011;2000;47.572;14.202;2024-01-10T07:45:07;6.03;;;2.10;;
3971;SDS011;2000;47.572;14.202;2024-01-10T07:47:35;2.33;;;1.63;;
3971;SDS011;2000;47.572;14.202;2024-01-10T07:50:06;5.30;;;2.87;;
3971;SDS011;2000;47.572;14.202;2024-01-10T07:52:34;10.57;;;6.33;;
3971;SDS011;2000;47.572;14.202;2024-01-10T07:55:01;11.63;;;6.00;;
3971;SDS011;2000;47.572;14.202;2024-01-10T07:57:32;7.50;;;3.80;;
3971;SDS011;2000;47.572;14.202;2024-01-10T08:00:00;2.73;;;1.90;;
3971;SDS011;2000;47.572;14.202;2024-01-10T08:02:34;3.10;;;2.40;;
3971;SDS011;2000;47.572;14.202;2024-01-10T08:05:01;2.07;;;1.80;;
3971;SDS011;2000;47.572;14.202;2024-01-10T08:07:39;1.60;;;1.47;;
3971;SDS011;2000;47.572;14.202;2024-01-10T08:10:07;1.83;;;1.57;;
3971;SDS011;2000;47.572;14.202;2024-01-10T08:12:36;1.47;;;1.37;;
3971;SDS011;2000;47.572;14.202;2024-01-10T08:15:05;2.67;;;1.60;;
3971;SDS011;2000;47.572;14.202;2024-01-10T08:17:33;2.67;;;2.10;;
3971;SDS011;2000;47.572;14.202;2024-01-10T08:20:01;3.20;;;1.37;;
3971;SDS011;2000;47.572;14.202;2024-01-10T08:22:31;0.87;;;0.87;;
3971;SDS011;2000;47.572;14.202;2024-01-10T08:24:58;5.50;;;1.80;;
3971;SDS011;2000;47.572;14.202;2024-01-10T08:27:25;1.93;;;1.50;;
3971;SDS011;2000;47.572;14.202;2024-01-10T08:29:52;2.50;;;1.93;;
3971;SDS011;2000;47.572;14.202;2024-01-10T08:32:19;2.37;;;1.83;;
3971;SDS011;2000;47.572;14.202;2024-01-10T08:34:49;4.00;;;2.20;;
3971;SDS011;2000;47.572;14.202;2024-01-10T08:37:16;2.10;;;1.53;;
3971;SDS011;2000;47.572;14.202;2024-01-10T08:39:45;2.00;;;1.30;;
3971;SDS011;2000;47.572;14.202;2024-01-10T08:42:12;2.00;;;1.43;;
3971;SDS011;2000;47.572;14.202;2024-01-10T08:44:39;2.40;;;1.77;;
3971;SDS011;2000;47.572;14.202;2024-01-10T08:47:06;5.67;;;1.73;;
3971;SDS011;2000;47.572;14.202;2024-01-10T08:49:34;5.23;;;2.40;;
3971;SDS011;2000;47.572;14.202;2024-01-10T08:52:01;4.67;;;3.33;;
3971;SDS011;2000;47.572;14.202;2024-01-10T08:54:28;2.47;;;1.70;;
3971;SDS011;2000;47.572;14.202;2024-01-10T08:56:55;2.33;;;1.50;;
3971;SDS011;2000;47.572;14.202;2024-01-10T08:59:23;2.00;;;1.13;;
3971;SDS011;2000;47.572;14.202;2024-01-10T09:01:51;1.90;;;1.27;;
3971;SDS011;2000;47.572;14.202;2024-01-10T09:04:18;2.73;;;1.93;;
3971;SDS011;2000;47.572;14.202;2024-01-10T09:06:46;2.90;;;1.87;;
3971;SDS011;2000;47.572;14.202;2024-01-10T09:09:14;1.90;;;1.40;;
3971;SDS011;2000;47.572;14.202;2024-01-10T09:11:41;1.13;;;0.93;;
3971;SDS011;2000;47.572;14.202;2024-01-10T09:14:11;3.07;;;1.40;;
3971;SDS011;2000;47.572;14.202;2024-01-10T09:16:38;1.43;;;0.93;;
3971;SDS011;2000;47.572;14.202;2024-01-10T09:19:05;1.53;;;1.13;;
3971;SDS011;2000;47.572;14.202;2024-01-10T09:21:37;1.33;;;1.00;;
3971;SDS011;2000;47.572;14.202;2024-01-10T09:24:04;2.30;;;1.50;;
3971;SDS011;2000;47.572;14.202;2024-01-10T09:26:54;2.73;;;1.27;;
3971;SDS011;2000;47.572;14.202;2024-01-10T09:29:21;2.73;;;1.27;;
3971;SDS011;2000;47.572;14.202;2024-01-10T09:31:48;2.20;;;0.90;;
3971;SDS011;2000;47.572;14.202;2024-01-10T09:34:15;1.40;;;1.30;;
3971;SDS011;2000;47.572;14.202;2024-01-10T09:36:43;2.20;;;1.90;;
3971;SDS011;2000;47.572;14.202;2024-01-10T09:39:10;3.13;;;2.17;;
3971;SDS011;2000;47.572;14.202;2024-01-10T09:41:42;3.00;;;1.77;;
3971;SDS011;2000;47.572;14.202;2024-01-10T09:44:15;1.57;;;1.23;;
3971;SDS011;2000;47.572;14.202;2024-01-10T09:46:48;2.37;;;1.77;;
3971;SDS011;2000;47.572;14.202;2024-01-10T09:49:17;1.90;;;1.30;;
3971;SDS011;2000;47.572;14.202;2024-01-10T09:51:48;1.30;;;1.20;;
3971;SDS011;2000;47.572;14.202;2024-01-10T09:54:16;2.17;;;1.30;;
3971;SDS011;2000;47.572;14.202;2024-01-10T09:56:43;2.30;;;1.90;;
3971;SDS011;2000;47.572;14.202;2024-01-10T09:59:10;2.70;;;1.50;;
3971;SDS011;2000;47.572;14.202;2024-01-10T10:01:37;1.30;;;1.10;;
3971;SDS011;2000;47.572;14.202;2024-01-10T10:04:08;3.57;;;1.37;;
3971;SDS011;2000;47.572;14.202;2024-01-10T10:06:36;3.33;;;1.70;;
3971;SDS011;2000;47.572;14.202;2024-01-10T10:09:04;6.47;;;4.20;;
3971;SDS011;2000;47.572;14.202;2024-01-10T10:11:31;7.43;;;4.50;;
3971;SDS011;2000;47.572;14.202;2024-01-10T10:14:13;6.67;;;3.37;;
3971;SDS011;2000;47.572;14.202;2024-01-10T10:16:41;5.20;;;3.70;;
3971;SDS011;2000;47.572;14.202;2024-01-10T10:19:09;7.07;;;4.47;;
3971;SDS011;2000;47.572;14.202;2024-01-10T10:21:39;8.33;;;4.93;;
3971;SDS011;2000;47.572;14.202;2024-01-10T10:24:06;7.43;;;4.30;;
3971;SDS011;2000;47.572;14.202;2024-01-10T10:26:35;8.10;;;4.83;;
3971;SDS011;2000;47.572;14.202;2024-01-10T10:29:02;6.10;;;3.97;;
3971;SDS011;2000;47.572;14.202;2024-01-10T10:31:30;5.73;;;3.90;;
3971;SDS011;2000;47.572;14.202;2024-01-10T10:33:59;5.13;;;3.27;;
3971;SDS011;2000;47.572;14.202;2024-01-10T10:36:32;7.47;;;4.13;;
3971;SDS011;2000;47.572;14.202;2024-01-10T10:38:59;4.80;;;3.30;;
3971;SDS011;2000;47.572;14.202;2024-01-10T10:41:29;10.10;;;4.97;;
3971;SDS011;2000;47.572;14.202;2024-01-10T10:43:58;6.43;;;3.90;;
3971;SDS011;2000;47.572;14.202;2024-01-10T10:46:26;9.63;;;3.70;;
3971;SDS011;2000;47.572;14.202;2024-01-10T10:48:55;10.30;;;5.10;;
3971;SDS011;2000;47.572;14.202;2024-01-10T10:51:27;7.57;;;4.43;;
3971;SDS011;2000;47.572;14.202;2024-01-10T10:54:01;8.27;;;4.70;;
3971;SDS011;2000;47.572;14.202;2024-01-10T10:56:31;6.07;;;4.40;;
3971;SDS011;2000;47.572;14.202;2024-01-10T10:59:01;16.27;;;5.43;;
3971;SDS011;2000;47.572;14.202;2024-01-10T11:01:29;14.47;;;4.83;;
3971;SDS011;2000;47.572;14.202;2024-01-10T11:03:58;13.07;;;5.77;;
3971;SDS011;2000;47.572;14.202;2024-01-10T11:06:25;19.53;;;6.77;;
3971;SDS011;2000;47.572;14.202;2024-01-10T11:08:57;12.50;;;4.70;;
3971;SDS011;2000;47.572;14.202;2024-01-10T11:25:50;8.20;;;3.67;;
3971;SDS011;2000;47.572;14.202;2024-01-10T11:28:17;13.43;;;5.10;;
3971;SDS011;2000;47.572;14.202;2024-01-10T11:30:48;9.17;;;4.83;;
3971;SDS011;2000;47.572;14.202;2024-01-10T11:33:23;15.23;;;4.47;;
3971;SDS011;2000;47.572;14.202;2024-01-10T11:38:39;9.40;;;3.80;;
3971;SDS011;2000;47.572;14.202;2024-01-10T11:41:24;8.47;;;4.40;;
3971;SDS011;2000;47.572;14.202;2024-01-10T11:46:40;5.60;;;3.60;;
3971;SDS011;2000;47.572;14.202;2024-01-10T11:49:10;22.60;;;10.90;;
3971;SDS011;2000;47.572;14.202;2024-01-10T11:51:43;10.40;;;4.40;;
3971;SDS011;2000;47.572;14.202;2024-01-10T11:57:08;23.53;;;12.90;;
3971;SDS011;2000;47.572;14.202;2024-01-10T11:59:41;14.30;;;7.43;;
3971;SDS011;2000;47.572;14.202;2024-01-10T12:02:12;16.80;;;8.77;;
3971;SDS011;2000;47.572;14.202;2024-01-10T12:04:40;20.60;;;6.53;;
3971;SDS011;2000;47.572;14.202;2024-01-10T12:07:14;10.47;;;5.50;;
3971;SDS011;2000;47.572;14.202;2024-01-10T12:09:43;16.30;;;8.30;;
3971;SDS011;2000;47.572;14.202;2024-01-10T12:12:11;9.97;;;5.30;;
3971;SDS011;2000;47.572;14.202;2024-01-10T12:14:43;10.13;;;4.70;;
3971;SDS011;2000;47.572;14.202;2024-01-10T12:17:12;6.57;;;4.27;;
3971;SDS011;2000;47.572;14.202;2024-01-10T12:19:40;11.07;;;5.67;;
3971;SDS011;2000;47.572;14.202;2024-01-10T12:22:13;4.77;;;3.10;;
3971;SDS011;2000;47.572;14.202;2024-01-10T12:24:43;9.03;;;4.33;;
3971;SDS011;2000;47.572;14.202;2024-01-10T12:27:12;7.10;;;3.63;;
3971;SDS011;2000;47.572;14.202;2024-01-10T12:29:39;7.00;;;3.77;;
3971;SDS011;2000;47.572;14.202;2024-01-10T12:32:07;6.17;;;3.30;;
3971;SDS011;2000;47.572;14.202;2024-01-10T12:34:39;9.17;;;4.77;;
3971;SDS011;2000;47.572;14.202;2024-01-10T12:37:07;4.80;;;3.43;;
3971;SDS011;2000;47.572;14.202;2024-01-10T12:39:34;7.03;;;3.30;;
3971;SDS011;2000;47.572;14.202;2024-01-10T12:42:01;13.97;;;6.67;;
3971;SDS011;2000;47.572;14.202;2024-01-10T12:44:31;19.10;;;6.17;;
3971;SDS011;2000;47.572;14.202;2024-01-10T12:46:58;11.83;;;4.60;;
3971;SDS011;2000;47.572;14.202;2024-01-10T12:49:26;7.23;;;3.77;;
3971;SDS011;2000;47.572;14.202;2024-01-10T12:51:54;8.87;;;3.87;;
3971;SDS011;2000;47.572;14.202;2024-01-10T12:54:21;29.40;;;13.20;;
3971;SDS011;2000;47.572;14.202;2024-01-10T12:56:48;9.30;;;4.20;;
3971;SDS011;2000;47.572;14.202;2024-01-10T12:59:17;8.50;;;4.00;;
3971;SDS011;2000;47.572;14.202;2024-01-10T13:01:44;6.53;;;3.70;;
3971;SDS011;2000;47.572;14.202;2024-01-10T13:04:11;4.40;;;3.27;;
3971;SDS011;2000;47.572;14.202;2024-01-10T13:06:39;18.10;;;3.20;;
3971;SDS011;2000;47.572;14.202;2024-01-10T13:09:07;6.33;;;3.83;;
3971;SDS011;2000;47.572;14.202;2024-01-10T13:11:36;9.67;;;3.87;;
3971;SDS011;2000;47.572;14.202;2024-01-10T13:14:03;8.73;;;4.00;;
3971;SDS011;2000;47.572;14.202;2024-01-10T13:16:30;4.43;;;3.00;;
3971;SDS011;2000;47.572;14.202;2024-01-10T13:19:11;7.50;;;4.03;;
3971;SDS011;2000;47.572;14.202;2024-01-10T13:21:41;7.50;;;3.40;;
3971;SDS011;2000;47.572;14.202;2024-01-10T13:24:08;4.87;;;3.20;;
3971;SDS011;2000;47.572;14.202;2024-01-10T13:26:36;3.77;;;2.87;;
3971;SDS011;2000;47.572;14.202;2024-01-10T13:29:03;7.03;;;3.13;;
3971;SDS011;2000;47.572;14.202;2024-01-10T13:31:30;2.63;;;2.43;;
3971;SDS011;2000;47.572;14.202;2024-01-10T13:33:57;9.10;;;3.70;;
3971;SDS011;2000;47.572;14.202;2024-01-10T13:36:24;6.53;;;3.00;;
3971;SDS011;2000;47.572;14.202;2024-01-10T13:38:51;4.00;;;2.90;;
3971;SDS011;2000;47.572;14.202;2024-01-10T13:41:19;8.13;;;2.53;;
3971;SDS011;2000;47.572;14.202;2024-01-10T13:43:46;5.73;;;3.00;;
3971;SDS011;2000;47.572;14.202;2024-01-10T13:46:13;10.20;;;2.30;;
3971;SDS011;2000;47.572;14.202;2024-01-10T13:48:40;7.03;;;2.67;;
3971;SDS011;2000;47.572;14.202;2024-01-10T13:51:08;3.40;;;2.37;;
3971;SDS011;2000;47.572;14.202;2024-01-10T13:53:36;5.03;;;2.93;;
3971;SDS011;2000;47.572;14.202;2024-01-10T13:56:04;4.90;;;2.87;;
3971;SDS011;2000;47.572;14.202;2024-01-10T13:58:31;5.97;;;3.10;;
3971;SDS011;2000;47.572;14.202;2024-01-10T14:00:58;7.93;;;3.67;;
3971;SDS011;2000;47.572;14.202;2024-01-10T14:03:26;3.30;;;2.80;;
3971;SDS011;2000;47.572;14.202;2024-01-10T14:05:57;17.27;;;3.30;;
3971;SDS011;2000;47.572;14.202;2024-01-10T14:08:24;4.00;;;3.00;;
3971;SDS011;2000;47.572;14.202;2024-01-10T14:10:53;4.70;;;3.13;;
3971;SDS011;2000;47.572;14.202;2024-01-10T14:13:20;6.13;;;3.03;;
3971;SDS011;2000;47.572;14.202;2024-01-10T14:15:49;12.77;;;2.83;;
3971;SDS011;2000;47.572;14.202;2024-01-10T14:18:16;5.47;;;2.40;;
3971;SDS011;2000;47.572;14.202;2024-01-10T14:20:44;9.10;;;5.30;;
3971;SDS011;2000;47.572;14.202;2024-01-10T14:23:11;9.27;;;4.73;;
3971;SDS011;2000;47.572;14.202;2024-01-10T14:25:38;9.73;;;5.00;;
3971;SDS011;2000;47.572;14.202;2024-01-10T14:28:05;5.30;;;2.87;;
3971;SDS011;2000;47.572;14.202;2024-01-10T14:30:32;6.60;;;2.70;;
3971;SDS011;2000;47.572;14.202;2024-01-10T14:32:59;6.43;;;3.27;;
3971;SDS011;2000;47.572;14.202;2024-01-10T14:35:27;5.30;;;3.40;;
3971;SDS011;2000;47.572;14.202;2024-01-10T14:37:54;6.90;;;3.67;;
3971;SDS011;2000;47.572;14.202;2024-01-10T14:40:21;8.10;;;4.90;;
3971;SDS011;2000;47.572;14.202;2024-01-10T14:42:51;5.40;;;2.50;;
3971;SDS011;2000;47.572;14.202;2024-01-10T14:45:18;7.63;;;3.60;;
3971;SDS011;2000;47.572;14.202;2024-01-10T14:47:47;3.73;;;2.40;;
3971;SDS011;2000;47.572;14.202;2024-01-10T14:50:16;6.57;;;2.70;;
3971;SDS011;2000;47.572;14.202;2024-01-10T14:52:43;3.50;;;2.60;;
3971;SDS011;2000;47.572;14.202;2024-01-10T14:55:10;5.90;;;3.00;;
3971;SDS011;2000;47.572;14.202;2024-01-10T14:57:37;4.50;;;2.17;;
3971;SDS011;2000;47.572;14.202;2024-01-10T15:00:05;7.07;;;3.00;;
3971;SDS011;2000;47.572;14.202;2024-01-10T15:02:32;3.97;;;2.40;;
3971;SDS011;2000;47.572;14.202;2024-01-10T15:05:03;3.73;;;2.10;;
3971;SDS011;2000;47.572;14.202;2024-01-10T15:07:31;3.10;;;2.53;;
3971;SDS011;2000;47.572;14.202;2024-01-10T15:09:58;3.77;;;2.30;;
3971;SDS011;2000;47.572;14.202;2024-01-10T15:12:30;4.77;;;2.90;;
3971;SDS011;2000;47.572;14.202;2024-01-10T15:14:57;5.37;;;3.00;;
3971;SDS011;2000;47.572;14.202;2024-01-10T15:17:26;2.90;;;2.50;;
3971;SDS011;2000;47.572;14.202;2024-01-10T15:19:53;4.27;;;2.50;;
3971;SDS011;2000;47.572;14.202;2024-01-10T15:22:21;7.13;;;2.37;;
3971;SDS011;2000;47.572;14.202;2024-01-10T15:24:48;4.37;;;1.80;;
3971;SDS011;2000;47.572;14.202;2024-01-10T15:27:15;4.47;;;2.63;;